Aviation Digital Data Service (ADDS)

Output produced by METARs form (0647 UTC 07 December 2022)
found at http://www.aviationweather.gov/metar/data/
 
Forecast for: EFIV (IVALO , FI)
Text: TAF EFIV 070534Z 0706/0715 23005KT 9999 OVC008
Forecast period: 0600 to 1500 UTC 07 December 2022
Forecast type: FROM: standard forecast or significant change
Winds: from the SW (230 degrees) at 6 MPH (5 knots; 2.6 m/s)
Visibility: 6 or more miles (10+ km)
Ceiling: 800 feet AGL
Clouds: overcast cloud deck at 800 feet AGL
Weather: no significant weather forecast for this period
Text: TEMPO 0706/0715 4000 -SN BKN014
Forecast period: 0600 to 1500 UTC 07 December 2022
Forecast type: TEMPORARY: The following changes expected for less than half the time period
Visibility: 2.49 miles (4.01 km)
Ceiling: 1400 feet AGL
Clouds: broken clouds at 1400 feet AGL
Weather: -SN  (light snow)